sensor_id;sensor_type;location;lat;lon;timestamp;P1;durP1;ratioP1;P2;durP2;ratioP2
66143;SDS011;52947;50.842;6.084;2022-12-22T00:01:01;0.82;;;0.32;;
66143;SDS011;52947;50.842;6.084;2022-12-22T00:03:47;0.40;;;0.40;;
66143;SDS011;52947;50.842;6.084;2022-12-22T00:06:33;0.35;;;0.32;;
66143;SDS011;52947;50.842;6.084;2022-12-22T00:09:19;2.08;;;0.30;;
66143;SDS011;52947;50.842;6.084;2022-12-22T00:12:06;0.45;;;0.45;;
66143;SDS011;52947;50.842;6.084;2022-12-22T00:14:53;1.08;;;0.40;;
66143;SDS011;52947;50.842;6.084;2022-12-22T00:17:38;0.35;;;0.35;;
66143;SDS011;52947;50.842;6.084;2022-12-22T00:20:24;0.40;;;0.40;;
66143;SDS011;52947;50.842;6.084;2022-12-22T00:23:11;0.50;;;0.50;;
66143;SDS011;52947;50.842;6.084;2022-12-22T00:25:58;0.30;;;0.30;;
66143;SDS011;52947;50.842;6.084;2022-12-22T00:28:44;0.93;;;0.60;;
66143;SDS011;52947;50.842;6.084;2022-12-22T00:31:29;0.57;;;0.57;;
66143;SDS011;52947;50.842;6.084;2022-12-22T00:34:15;0.60;;;0.40;;
66143;SDS011;52947;50.842;6.084;2022-12-22T00:37:02;0.68;;;0.35;;
66143;SDS011;52947;50.842;6.084;2022-12-22T00:39:48;0.38;;;0.38;;
66143;SDS011;52947;50.842;6.084;2022-12-22T00:42:34;0.50;;;0.50;;
66143;SDS011;52947;50.842;6.084;2022-12-22T00:45:20;0.35;;;0.35;;
66143;SDS011;52947;50.842;6.084;2022-12-22T00:48:06;0.50;;;0.45;;
66143;SDS011;52947;50.842;6.084;2022-12-22T00:51:02;0.60;;;0.60;;
66143;SDS011;52947;50.842;6.084;2022-12-22T00:53:47;0.30;;;0.30;;
66143;SDS011;52947;50.842;6.084;2022-12-22T00:56:33;1.10;;;0.40;;
66143;SDS011;52947;50.842;6.084;2022-12-22T00:59:20;0.50;;;0.50;;
66143;SDS011;52947;50.842;6.084;2022-12-22T01:02:05;0.70;;;0.60;;
66143;SDS011;52947;50.842;6.084;2022-12-22T01:04:50;1.63;;;0.47;;
66143;SDS011;52947;50.842;6.084;2022-12-22T01:07:36;0.70;;;0.50;;
66143;SDS011;52947;50.842;6.084;2022-12-22T01:10:22;0.40;;;0.40;;
66143;SDS011;52947;50.842;6.084;2022-12-22T01:13:09;1.42;;;0.40;;
66143;SDS011;52947;50.842;6.084;2022-12-22T01:15:57;0.50;;;0.50;;
66143;SDS011;52947;50.842;6.084;2022-12-22T01:18:42;0.30;;;0.30;;
66143;SDS011;52947;50.842;6.084;2022-12-22T01:21:27;0.77;;;0.40;;
66143;SDS011;52947;50.842;6.084;2022-12-22T01:24:13;0.40;;;0.40;;
66143;SDS011;52947;50.842;6.084;2022-12-22T01:27:00;0.38;;;0.32;;
66143;SDS011;52947;50.842;6.084;2022-12-22T01:29:45;2.78;;;0.45;;
66143;SDS011;52947;50.842;6.084;2022-12-22T01:32:32;1.38;;;0.50;;
66143;SDS011;52947;50.842;6.084;2022-12-22T01:35:18;0.98;;;0.30;;
66143;SDS011;52947;50.842;6.084;2022-12-22T01:38:05;0.77;;;0.43;;
66143;SDS011;52947;50.842;6.084;2022-12-22T01:40:51;0.40;;;0.40;;
66143;SDS011;52947;50.842;6.084;2022-12-22T01:43:37;0.40;;;0.30;;
66143;SDS011;52947;50.842;6.084;2022-12-22T01:46:23;0.98;;;0.50;;
66143;SDS011;52947;50.842;6.084;2022-12-22T01:49:12;0.30;;;0.30;;
66143;SDS011;52947;50.842;6.084;2022-12-22T01:52:01;0.93;;;0.40;;
66143;SDS011;52947;50.842;6.084;2022-12-22T01:54:47;0.30;;;0.30;;
66143;SDS011;52947;50.842;6.084;2022-12-22T01:57:33;0.50;;;0.40;;
66143;SDS011;52947;50.842;6.084;2022-12-22T02:00:18;0.88;;;0.40;;
66143;SDS011;52947;50.842;6.084;2022-12-22T02:03:12;0.30;;;0.30;;
66143;SDS011;52947;50.842;6.084;2022-12-22T02:06:03;0.60;;;0.50;;
66143;SDS011;52947;50.842;6.084;2022-12-22T02:09:00;0.55;;;0.40;;
66143;SDS011;52947;50.842;6.084;2022-12-22T02:12:01;0.63;;;0.30;;
66143;SDS011;52947;50.842;6.084;2022-12-22T02:14:54;0.30;;;0.30;;
66143;SDS011;52947;50.842;6.084;2022-12-22T02:17:48;0.65;;;0.65;;
66143;SDS011;52947;50.842;6.084;2022-12-22T02:20:42;1.75;;;0.40;;
66143;SDS011;52947;50.842;6.084;2022-12-22T02:26:44;0.35;;;0.35;;
66143;SDS011;52947;50.842;6.084;2022-12-22T02:29:33;0.30;;;0.30;;
66143;SDS011;52947;50.842;6.084;2022-12-22T02:32:21;1.50;;;0.60;;
66143;SDS011;52947;50.842;6.084;2022-12-22T02:35:09;0.40;;;0.40;;
66143;SDS011;52947;50.842;6.084;2022-12-22T02:37:57;0.20;;;0.20;;
66143;SDS011;52947;50.842;6.084;2022-12-22T02:40:49;0.25;;;0.25;;
66143;SDS011;52947;50.842;6.084;2022-12-22T02:43:51;0.40;;;0.40;;
66143;SDS011;52947;50.842;6.084;2022-12-22T02:46:48;0.40;;;0.30;;
66143;SDS011;52947;50.842;6.084;2022-12-22T02:49:45;0.50;;;0.40;;
66143;SDS011;52947;50.842;6.084;2022-12-22T02:52:37;0.40;;;0.20;;
66143;SDS011;52947;50.842;6.084;2022-12-22T02:55:23;0.70;;;0.40;;
66143;SDS011;52947;50.842;6.084;2022-12-22T02:58:10;1.35;;;0.63;;
66143;SDS011;52947;50.842;6.084;2022-12-22T03:00:57;0.70;;;0.40;;
66143;SDS011;52947;50.842;6.084;2022-12-22T03:03:43;0.20;;;0.20;;
66143;SDS011;52947;50.842;6.084;2022-12-22T03:06:28;0.40;;;0.40;;
66143;SDS011;52947;50.842;6.084;2022-12-22T03:09:14;0.57;;;0.40;;
66143;SDS011;52947;50.842;6.084;2022-12-22T03:11:59;0.65;;;0.40;;
66143;SDS011;52947;50.842;6.084;2022-12-22T03:14:44;2.15;;;0.30;;
66143;SDS011;52947;50.842;6.084;2022-12-22T03:17:31;0.30;;;0.30;;
66143;SDS011;52947;50.842;6.084;2022-12-22T03:20:16;0.47;;;0.30;;
66143;SDS011;52947;50.842;6.084;2022-12-22T03:23:03;0.30;;;0.30;;
66143;SDS011;52947;50.842;6.084;2022-12-22T03:25:49;0.40;;;0.40;;
66143;SDS011;52947;50.842;6.084;2022-12-22T03:28:17;0.20;;;0.20;;
66143;SDS011;52947;50.842;6.084;2022-12-22T03:30:51;1.45;;;0.38;;
66143;SDS011;52947;50.842;6.084;2022-12-22T03:33:21;0.45;;;0.40;;
66143;SDS011;52947;50.842;6.084;2022-12-22T03:35:49;0.30;;;0.30;;
66143;SDS011;52947;50.842;6.084;2022-12-22T03:38:17;0.45;;;0.30;;
66143;SDS011;52947;50.842;6.084;2022-12-22T03:40:45;0.30;;;0.30;;
66143;SDS011;52947;50.842;6.084;2022-12-22T03:43:14;0.30;;;0.30;;
66143;SDS011;52947;50.842;6.084;2022-12-22T03:46:01;0.70;;;0.30;;
66143;SDS011;52947;50.842;6.084;2022-12-22T03:48:50;0.43;;;0.43;;
66143;SDS011;52947;50.842;6.084;2022-12-22T03:51:37;0.28;;;0.25;;
66143;SDS011;52947;50.842;6.084;2022-12-22T03:54:07;0.73;;;0.30;;
66143;SDS011;52947;50.842;6.084;2022-12-22T03:56:35;1.25;;;0.20;;
66143;SDS011;52947;50.842;6.084;2022-12-22T03:59:04;0.30;;;0.30;;
66143;SDS011;52947;50.842;6.084;2022-12-22T04:01:33;0.20;;;0.20;;
66143;SDS011;52947;50.842;6.084;2022-12-22T04:04:05;0.68;;;0.30;;
66143;SDS011;52947;50.842;6.084;2022-12-22T04:09:00;0.30;;;0.30;;
66143;SDS011;52947;50.842;6.084;2022-12-22T04:11:29;0.68;;;0.40;;
66143;SDS011;52947;50.842;6.084;2022-12-22T04:14:14;0.40;;;0.40;;
66143;SDS011;52947;50.842;6.084;2022-12-22T04:16:42;0.20;;;0.20;;
66143;SDS011;52947;50.842;6.084;2022-12-22T04:19:11;0.35;;;0.35;;
66143;SDS011;52947;50.842;6.084;2022-12-22T04:21:39;0.20;;;0.20;;
66143;SDS011;52947;50.842;6.084;2022-12-22T04:24:07;0.30;;;0.25;;
66143;SDS011;52947;50.842;6.084;2022-12-22T04:26:35;0.60;;;0.30;;
66143;SDS011;52947;50.842;6.084;2022-12-22T04:29:03;0.30;;;0.30;;
66143;SDS011;52947;50.842;6.084;2022-12-22T04:31:31;0.85;;;0.75;;
66143;SDS011;52947;50.842;6.084;2022-12-22T04:33:58;0.30;;;0.30;;
66143;SDS011;52947;50.842;6.084;2022-12-22T04:36:27;1.73;;;0.30;;
66143;SDS011;52947;50.842;6.084;2022-12-22T04:38:55;0.75;;;0.40;;
66143;SDS011;52947;50.842;6.084;2022-12-22T04:41:23;2.33;;;0.50;;
66143;SDS011;52947;50.842;6.084;2022-12-22T04:43:51;2.00;;;0.40;;
66143;SDS011;52947;50.842;6.084;2022-12-22T04:46:19;0.52;;;0.40;;
66143;SDS011;52947;50.842;6.084;2022-12-22T04:48:46;0.30;;;0.30;;
66143;SDS011;52947;50.842;6.084;2022-12-22T04:51:21;0.45;;;0.45;;
66143;SDS011;52947;50.842;6.084;2022-12-22T04:53:50;0.30;;;0.30;;
66143;SDS011;52947;50.842;6.084;2022-12-22T04:56:18;2.15;;;0.20;;
66143;SDS011;52947;50.842;6.084;2022-12-22T04:58:46;0.40;;;0.40;;
66143;SDS011;52947;50.842;6.084;2022-12-22T05:01:14;0.45;;;0.40;;
66143;SDS011;52947;50.842;6.084;2022-12-22T05:03:44;1.10;;;0.50;;
66143;SDS011;52947;50.842;6.084;2022-12-22T05:06:12;0.70;;;0.70;;
66143;SDS011;52947;50.842;6.084;2022-12-22T05:08:41;0.68;;;0.68;;
66143;SDS011;52947;50.842;6.084;2022-12-22T05:11:10;0.77;;;0.47;;
66143;SDS011;52947;50.842;6.084;2022-12-22T05:13:38;0.40;;;0.40;;
66143;SDS011;52947;50.842;6.084;2022-12-22T05:16:06;1.95;;;0.80;;
66143;SDS011;52947;50.842;6.084;2022-12-22T05:18:36;1.90;;;0.90;;
66143;SDS011;52947;50.842;6.084;2022-12-22T05:21:05;0.73;;;0.68;;
66143;SDS011;52947;50.842;6.084;2022-12-22T05:26:01;2.10;;;0.90;;
66143;SDS011;52947;50.842;6.084;2022-12-22T05:28:30;1.52;;;0.75;;
66143;SDS011;52947;50.842;6.084;2022-12-22T05:31:01;0.80;;;0.80;;
66143;SDS011;52947;50.842;6.084;2022-12-22T05:33:30;1.55;;;1.25;;
66143;SDS011;52947;50.842;6.084;2022-12-22T05:35:57;0.95;;;0.82;;
66143;SDS011;52947;50.842;6.084;2022-12-22T05:38:25;1.23;;;1.15;;
66143;SDS011;52947;50.842;6.084;2022-12-22T05:40:53;1.98;;;1.30;;
66143;SDS011;52947;50.842;6.084;2022-12-22T05:43:30;1.63;;;1.20;;
66143;SDS011;52947;50.842;6.084;2022-12-22T05:46:00;2.53;;;1.42;;
66143;SDS011;52947;50.842;6.084;2022-12-22T05:48:29;3.70;;;1.77;;
66143;SDS011;52947;50.842;6.084;2022-12-22T05:51:04;1.50;;;1.27;;
66143;SDS011;52947;50.842;6.084;2022-12-22T05:53:32;1.80;;;1.30;;
66143;SDS011;52947;50.842;6.084;2022-12-22T05:56:00;1.23;;;1.13;;
66143;SDS011;52947;50.842;6.084;2022-12-22T05:58:30;2.38;;;1.02;;
66143;SDS011;52947;50.842;6.084;2022-12-22T06:00:59;1.60;;;1.30;;
66143;SDS011;52947;50.842;6.084;2022-12-22T06:03:27;1.13;;;1.00;;
66143;SDS011;52947;50.842;6.084;2022-12-22T06:05:56;3.50;;;1.45;;
66143;SDS011;52947;50.842;6.084;2022-12-22T06:08:24;2.30;;;1.10;;
66143;SDS011;52947;50.842;6.084;2022-12-22T06:10:53;2.00;;;1.00;;
66143;SDS011;52947;50.842;6.084;2022-12-22T06:13:22;1.38;;;1.10;;
66143;SDS011;52947;50.842;6.084;2022-12-22T06:15:52;1.17;;;0.70;;
66143;SDS011;52947;50.842;6.084;2022-12-22T06:18:20;1.15;;;1.05;;
66143;SDS011;52947;50.842;6.084;2022-12-22T06:20:49;1.17;;;0.82;;
66143;SDS011;52947;50.842;6.084;2022-12-22T06:23:18;1.55;;;1.40;;
66143;SDS011;52947;50.842;6.084;2022-12-22T06:25:52;1.58;;;1.48;;
66143;SDS011;52947;50.842;6.084;2022-12-22T06:28:20;1.48;;;1.35;;
66143;SDS011;52947;50.842;6.084;2022-12-22T06:30:48;1.90;;;1.80;;
66143;SDS011;52947;50.842;6.084;2022-12-22T06:33:18;2.25;;;1.63;;
66143;SDS011;52947;50.842;6.084;2022-12-22T06:35:46;1.75;;;1.60;;
66143;SDS011;52947;50.842;6.084;2022-12-22T06:38:23;1.80;;;1.70;;
66143;SDS011;52947;50.842;6.084;2022-12-22T06:40:50;2.53;;;1.80;;
66143;SDS011;52947;50.842;6.084;2022-12-22T06:43:18;2.63;;;1.88;;
66143;SDS011;52947;50.842;6.084;2022-12-22T06:45:45;3.35;;;2.03;;
66143;SDS011;52947;50.842;6.084;2022-12-22T06:48:13;2.72;;;2.42;;
66143;SDS011;52947;50.842;6.084;2022-12-22T06:50:42;4.63;;;2.72;;
66143;SDS011;52947;50.842;6.084;2022-12-22T06:55:38;3.83;;;2.30;;
66143;SDS011;52947;50.842;6.084;2022-12-22T06:58:05;5.13;;;3.72;;
66143;SDS011;52947;50.842;6.084;2022-12-22T07:00:33;4.50;;;3.60;;
66143;SDS011;52947;50.842;6.084;2022-12-22T07:03:01;3.97;;;3.33;;
66143;SDS011;52947;50.842;6.084;2022-12-22T07:05:29;3.90;;;3.17;;
66143;SDS011;52947;50.842;6.084;2022-12-22T07:07:58;4.47;;;3.47;;
66143;SDS011;52947;50.842;6.084;2022-12-22T07:10:34;4.53;;;3.38;;
66143;SDS011;52947;50.842;6.084;2022-12-22T07:13:19;5.85;;;3.58;;
66143;SDS011;52947;50.842;6.084;2022-12-22T07:15:47;4.28;;;3.35;;
66143;SDS011;52947;50.842;6.084;2022-12-22T07:18:25;4.20;;;3.10;;
66143;SDS011;52947;50.842;6.084;2022-12-22T07:20:53;4.28;;;3.38;;
66143;SDS011;52947;50.842;6.084;2022-12-22T07:23:22;5.82;;;3.92;;
66143;SDS011;52947;50.842;6.084;2022-12-22T07:25:50;4.22;;;2.95;;
66143;SDS011;52947;50.842;6.084;2022-12-22T07:28:18;3.72;;;3.13;;
66143;SDS011;52947;50.842;6.084;2022-12-22T07:30:47;3.43;;;2.90;;
66143;SDS011;52947;50.842;6.084;2022-12-22T07:33:15;6.00;;;4.70;;
66143;SDS011;52947;50.842;6.084;2022-12-22T07:35:43;6.72;;;5.10;;
66143;SDS011;52947;50.842;6.084;2022-12-22T07:38:11;5.82;;;4.50;;
66143;SDS011;52947;50.842;6.084;2022-12-22T07:40:41;6.82;;;5.63;;
66143;SDS011;52947;50.842;6.084;2022-12-22T07:43:16;6.65;;;4.40;;
66143;SDS011;52947;50.842;6.084;2022-12-22T07:45:43;7.63;;;4.82;;
66143;SDS011;52947;50.842;6.084;2022-12-22T07:48:11;6.13;;;4.95;;
66143;SDS011;52947;50.842;6.084;2022-12-22T07:50:56;8.27;;;6.18;;
66143;SDS011;52947;50.842;6.084;2022-12-22T07:53:29;9.18;;;6.50;;
66143;SDS011;52947;50.842;6.084;2022-12-22T07:56:01;9.55;;;7.38;;
66143;SDS011;52947;50.842;6.084;2022-12-22T07:58:30;10.43;;;5.72;;
66143;SDS011;52947;50.842;6.084;2022-12-22T08:00:58;11.57;;;8.63;;
66143;SDS011;52947;50.842;6.084;2022-12-22T08:03:26;18.33;;;14.20;;
66143;SDS011;52947;50.842;6.084;2022-12-22T08:05:54;13.00;;;9.70;;
66143;SDS011;52947;50.842;6.084;2022-12-22T08:08:22;18.08;;;10.93;;
66143;SDS011;52947;50.842;6.084;2022-12-22T08:10:49;14.43;;;10.43;;
66143;SDS011;52947;50.842;6.084;2022-12-22T08:13:19;13.85;;;9.63;;
66143;SDS011;52947;50.842;6.084;2022-12-22T08:18:14;13.95;;;9.93;;
66143;SDS011;52947;50.842;6.084;2022-12-22T08:20:47;17.00;;;11.13;;
66143;SDS011;52947;50.842;6.084;2022-12-22T08:23:15;17.38;;;11.82;;
66143;SDS011;52947;50.842;6.084;2022-12-22T08:25:44;14.77;;;10.77;;
66143;SDS011;52947;50.842;6.084;2022-12-22T08:28:14;17.23;;;10.85;;
66143;SDS011;52947;50.842;6.084;2022-12-22T08:30:44;15.35;;;10.32;;
66143;SDS011;52947;50.842;6.084;2022-12-22T08:33:12;14.98;;;10.35;;
66143;SDS011;52947;50.842;6.084;2022-12-22T08:35:40;15.18;;;10.38;;
66143;SDS011;52947;50.842;6.084;2022-12-22T08:38:09;17.50;;;10.73;;
66143;SDS011;52947;50.842;6.084;2022-12-22T08:40:38;18.50;;;11.57;;
66143;SDS011;52947;50.842;6.084;2022-12-22T08:43:06;15.38;;;10.57;;
66143;SDS011;52947;50.842;6.084;2022-12-22T08:45:35;14.85;;;10.07;;
66143;SDS011;52947;50.842;6.084;2022-12-22T08:48:05;18.95;;;10.50;;
66143;SDS011;52947;50.842;6.084;2022-12-22T08:53:01;12.30;;;8.02;;
66143;SDS011;52947;50.842;6.084;2022-12-22T08:55:29;12.55;;;8.00;;
66143;SDS011;52947;50.842;6.084;2022-12-22T08:57:57;14.95;;;8.65;;
66143;SDS011;52947;50.842;6.084;2022-12-22T09:00:25;15.02;;;9.25;;
66143;SDS011;52947;50.842;6.084;2022-12-22T09:02:53;18.02;;;9.35;;
66143;SDS011;52947;50.842;6.084;2022-12-22T09:05:22;19.20;;;10.00;;
66143;SDS011;52947;50.842;6.084;2022-12-22T09:07:50;22.73;;;11.52;;
66143;SDS011;52947;50.842;6.084;2022-12-22T09:10:18;19.30;;;12.13;;
66143;SDS011;52947;50.842;6.084;2022-12-22T09:12:46;21.15;;;12.00;;
66143;SDS011;52947;50.842;6.084;2022-12-22T09:15:14;24.48;;;12.50;;
66143;SDS011;52947;50.842;6.084;2022-12-22T09:20:11;24.63;;;12.40;;
66143;SDS011;52947;50.842;6.084;2022-12-22T09:22:41;24.35;;;12.50;;
66143;SDS011;52947;50.842;6.084;2022-12-22T09:25:09;25.77;;;13.88;;
66143;SDS011;52947;50.842;6.084;2022-12-22T09:27:37;23.48;;;13.50;;
66143;SDS011;52947;50.842;6.084;2022-12-22T09:30:05;25.63;;;13.75;;
66143;SDS011;52947;50.842;6.084;2022-12-22T09:32:34;22.15;;;12.70;;
66143;SDS011;52947;50.842;6.084;2022-12-22T09:35:02;21.35;;;12.70;;
66143;SDS011;52947;50.842;6.084;2022-12-22T09:37:30;21.83;;;11.80;;
66143;SDS011;52947;50.842;6.084;2022-12-22T09:39:59;18.17;;;11.15;;
66143;SDS011;52947;50.842;6.084;2022-12-22T09:42:27;19.63;;;12.13;;
66143;SDS011;52947;50.842;6.084;2022-12-22T09:44:56;19.85;;;11.35;;
66143;SDS011;52947;50.842;6.084;2022-12-22T09:47:26;19.15;;;11.45;;
66143;SDS011;52947;50.842;6.084;2022-12-22T09:50:01;19.73;;;12.52;;
66143;SDS011;52947;50.842;6.084;2022-12-22T09:52:38;19.58;;;12.07;;
66143;SDS011;52947;50.842;6.084;2022-12-22T09:55:13;22.85;;;13.73;;
66143;SDS011;52947;50.842;6.084;2022-12-22T09:57:45;21.13;;;12.75;;
66143;SDS011;52947;50.842;6.084;2022-12-22T10:00:14;21.35;;;13.25;;
66143;SDS011;52947;50.842;6.084;2022-12-22T10:02:47;20.40;;;12.10;;
66143;SDS011;52947;50.842;6.084;2022-12-22T10:05:19;20.25;;;12.10;;
66143;SDS011;52947;50.842;6.084;2022-12-22T10:07:57;20.42;;;12.13;;
66143;SDS011;52947;50.842;6.084;2022-12-22T10:10:29;20.00;;;12.30;;
66143;SDS011;52947;50.842;6.084;2022-12-22T10:12:58;24.92;;;13.48;;
66143;SDS011;52947;50.842;6.084;2022-12-22T10:15:33;24.63;;;14.57;;
66143;SDS011;52947;50.842;6.084;2022-12-22T10:18:10;23.90;;;12.43;;
66143;SDS011;52947;50.842;6.084;2022-12-22T10:20:39;25.95;;;14.27;;
66143;SDS011;52947;50.842;6.084;2022-12-22T10:23:14;22.58;;;13.05;;
66143;SDS011;52947;50.842;6.084;2022-12-22T10:25:57;22.23;;;12.57;;
66143;SDS011;52947;50.842;6.084;2022-12-22T10:28:49;24.38;;;12.80;;
66143;SDS011;52947;50.842;6.084;2022-12-22T10:31:20;21.20;;;11.40;;
66143;SDS011;52947;50.842;6.084;2022-12-22T10:33:50;23.05;;;12.23;;
66143;SDS011;52947;50.842;6.084;2022-12-22T10:36:21;22.17;;;12.55;;
66143;SDS011;52947;50.842;6.084;2022-12-22T10:38:54;20.95;;;11.52;;
66143;SDS011;52947;50.842;6.084;2022-12-22T10:41:27;17.15;;;10.60;;
66143;SDS011;52947;50.842;6.084;2022-12-22T10:43:58;16.40;;;10.25;;
66143;SDS011;52947;50.842;6.084;2022-12-22T10:46:29;15.98;;;10.02;;
66143;SDS011;52947;50.842;6.084;2022-12-22T10:49:10;16.83;;;8.73;;
66143;SDS011;52947;50.842;6.084;2022-12-22T10:51:42;14.15;;;8.45;;
66143;SDS011;52947;50.842;6.084;2022-12-22T10:54:29;17.70;;;9.13;;
66143;SDS011;52947;50.842;6.084;2022-12-22T10:57:04;16.75;;;9.65;;
66143;SDS011;52947;50.842;6.084;2022-12-22T10:59:47;20.33;;;11.43;;
66143;SDS011;52947;50.842;6.084;2022-12-22T11:02:24;21.83;;;11.75;;
66143;SDS011;52947;50.842;6.084;2022-12-22T11:04:59;20.00;;;10.82;;
66143;SDS011;52947;50.842;6.084;2022-12-22T11:07:29;23.83;;;12.55;;
66143;SDS011;52947;50.842;6.084;2022-12-22T11:09:59;22.55;;;12.00;;
66143;SDS011;52947;50.842;6.084;2022-12-22T11:12:31;22.35;;;12.07;;
66143;SDS011;52947;50.842;6.084;2022-12-22T11:15:10;25.25;;;12.57;;
66143;SDS011;52947;50.842;6.084;2022-12-22T11:17:52;21.27;;;11.48;;
66143;SDS011;52947;50.842;6.084;2022-12-22T11:20:37;21.98;;;12.15;;
66143;SDS011;52947;50.842;6.084;2022-12-22T11:23:13;20.30;;;10.85;;
66143;SDS011;52947;50.842;6.084;2022-12-22T11:25:51;21.27;;;11.35;;
66143;SDS011;52947;50.842;6.084;2022-12-22T11:28:28;20.65;;;10.13;;
66143;SDS011;52947;50.842;6.084;2022-12-22T11:31:19;17.20;;;9.88;;
66143;SDS011;52947;50.842;6.084;2022-12-22T11:34:00;19.67;;;9.27;;
66143;SDS011;52947;50.842;6.084;2022-12-22T11:36:47;16.98;;;9.15;;
66143;SDS011;52947;50.842;6.084;2022-12-22T11:39:30;16.45;;;9.13;;
66143;SDS011;52947;50.842;6.084;2022-12-22T11:42:08;17.63;;;8.80;;
66143;SDS011;52947;50.842;6.084;2022-12-22T11:44:50;16.50;;;8.05;;
66143;SDS011;52947;50.842;6.084;2022-12-22T11:47:27;12.73;;;8.18;;
66143;SDS011;52947;50.842;6.084;2022-12-22T11:50:17;18.95;;;9.38;;
66143;SDS011;52947;50.842;6.084;2022-12-22T11:53:18;15.85;;;7.38;;
66143;SDS011;52947;50.842;6.084;2022-12-22T11:56:00;11.57;;;6.97;;
66143;SDS011;52947;50.842;6.084;2022-12-22T11:58:40;10.75;;;6.28;;
66143;SDS011;52947;50.842;6.084;2022-12-22T12:01:21;13.77;;;6.90;;
66143;SDS011;52947;50.842;6.084;2022-12-22T12:07:16;12.93;;;8.38;;
66143;SDS011;52947;50.842;6.084;2022-12-22T12:09:56;15.80;;;7.50;;
66143;SDS011;52947;50.842;6.084;2022-12-22T12:12:34;12.63;;;8.00;;
66143;SDS011;52947;50.842;6.084;2022-12-22T12:15:14;17.67;;;8.13;;
66143;SDS011;52947;50.842;6.084;2022-12-22T12:17:55;16.33;;;8.07;;
66143;SDS011;52947;50.842;6.084;2022-12-22T12:20:45;13.68;;;7.80;;
66143;SDS011;52947;50.842;6.084;2022-12-22T12:23:26;15.43;;;8.35;;
66143;SDS011;52947;50.842;6.084;2022-12-22T12:26:06;17.92;;;7.90;;
66143;SDS011;52947;50.842;6.084;2022-12-22T12:28:43;13.88;;;8.43;;
66143;SDS011;52947;50.842;6.084;2022-12-22T12:31:22;14.98;;;7.95;;
66143;SDS011;52947;50.842;6.084;2022-12-22T12:33:55;12.50;;;7.60;;
66143;SDS011;52947;50.842;6.084;2022-12-22T12:36:28;13.70;;;7.95;;
66143;SDS011;52947;50.842;6.084;2022-12-22T12:39:09;12.68;;;7.53;;
66143;SDS011;52947;50.842;6.084;2022-12-22T12:41:45;11.15;;;7.43;;
66143;SDS011;52947;50.842;6.084;2022-12-22T12:44:23;15.55;;;8.00;;
66143;SDS011;52947;50.842;6.084;2022-12-22T12:46:54;11.23;;;6.88;;
66143;SDS011;52947;50.842;6.084;2022-12-22T12:55:55;12.13;;;6.63;;
66143;SDS011;52947;50.842;6.084;2022-12-22T13:17:32;8.23;;;5.72;;
66143;SDS011;52947;50.842;6.084;2022-12-22T13:20:10;9.40;;;4.93;;
66143;SDS011;52947;50.842;6.084;2022-12-22T13:22:40;8.75;;;4.93;;
66143;SDS011;52947;50.842;6.084;2022-12-22T13:25:12;13.27;;;5.03;;
66143;SDS011;52947;50.842;6.084;2022-12-22T13:27:42;7.40;;;4.40;;
66143;SDS011;52947;50.842;6.084;2022-12-22T13:30:12;6.18;;;4.55;;
66143;SDS011;52947;50.842;6.084;2022-12-22T13:32:43;5.78;;;4.38;;
66143;SDS011;52947;50.842;6.084;2022-12-22T13:35:15;7.03;;;3.88;;
66143;SDS011;52947;50.842;6.084;2022-12-22T13:38:05;6.03;;;3.38;;
66143;SDS011;52947;50.842;6.084;2022-12-22T13:40:52;7.53;;;2.85;;
66143;SDS011;52947;50.842;6.084;2022-12-22T13:43:21;3.97;;;2.38;;
66143;SDS011;52947;50.842;6.084;2022-12-22T13:45:50;4.97;;;3.00;;
66143;SDS011;52947;50.842;6.084;2022-12-22T13:48:21;5.28;;;2.70;;
66143;SDS011;52947;50.842;6.084;2022-12-22T13:50:52;3.25;;;2.30;;
66143;SDS011;52947;50.842;6.084;2022-12-22T13:53:24;2.55;;;2.05;;
66143;SDS011;52947;50.842;6.084;2022-12-22T13:56:19;4.53;;;2.10;;
66143;SDS011;52947;50.842;6.084;2022-12-22T13:58:52;2.58;;;1.80;;
66143;SDS011;52947;50.842;6.084;2022-12-22T14:01:22;3.25;;;1.88;;
66143;SDS011;52947;50.842;6.084;2022-12-22T14:03:51;1.50;;;1.40;;
66143;SDS011;52947;50.842;6.084;2022-12-22T14:06:27;2.20;;;1.70;;
66143;SDS011;52947;50.842;6.084;2022-12-22T14:09:13;2.85;;;1.83;;
66143;SDS011;52947;50.842;6.084;2022-12-22T14:11:44;3.15;;;1.42;;
66143;SDS011;52947;50.842;6.084;2022-12-22T14:14:20;1.98;;;1.42;;
66143;SDS011;52947;50.842;6.084;2022-12-22T14:16:50;1.92;;;1.80;;
66143;SDS011;52947;50.842;6.084;2022-12-22T14:19:21;2.92;;;1.63;;
66143;SDS011;52947;50.842;6.084;2022-12-22T14:21:57;3.13;;;1.67;;
66143;SDS011;52947;50.842;6.084;2022-12-22T14:24:29;2.38;;;1.35;;
66143;SDS011;52947;50.842;6.084;2022-12-22T14:27:04;2.45;;;1.70;;
66143;SDS011;52947;50.842;6.084;2022-12-22T14:29:40;3.33;;;1.88;;
66143;SDS011;52947;50.842;6.084;2022-12-22T14:37:07;2.65;;;1.50;;
66143;SDS011;52947;50.842;6.084;2022-12-22T14:39:36;1.60;;;1.50;;
66143;SDS011;52947;50.842;6.084;2022-12-22T14:42:04;2.63;;;1.02;;
66143;SDS011;52947;50.842;6.084;2022-12-22T14:44:42;2.63;;;1.40;;
66143;SDS011;52947;50.842;6.084;2022-12-22T14:47:13;1.75;;;0.98;;
66143;SDS011;52947;50.842;6.084;2022-12-22T14:49:44;2.60;;;1.00;;
66143;SDS011;52947;50.842;6.084;2022-12-22T14:52:16;1.83;;;1.05;;
66143;SDS011;52947;50.842;6.084;2022-12-22T14:54:48;2.05;;;0.98;;
66143;SDS011;52947;50.842;6.084;2022-12-22T14:57:19;2.35;;;1.20;;
66143;SDS011;52947;50.842;6.084;2022-12-22T14:59:58;1.00;;;0.90;;
66143;SDS011;52947;50.842;6.084;2022-12-22T15:02:29;4.50;;;1.80;;
66143;SDS011;52947;50.842;6.084;2022-12-22T15:07:53;0.85;;;0.75;;
66143;SDS011;52947;50.842;6.084;2022-12-22T15:10:36;1.55;;;0.90;;
66143;SDS011;52947;50.842;6.084;2022-12-22T15:13:09;3.10;;;1.83;;
66143;SDS011;52947;50.842;6.084;2022-12-22T15:15:49;0.50;;;0.50;;
66143;SDS011;52947;50.842;6.084;2022-12-22T15:20:49;2.03;;;1.10;;
66143;SDS011;52947;50.842;6.084;2022-12-22T15:23:16;1.20;;;1.10;;
66143;SDS011;52947;50.842;6.084;2022-12-22T15:25:44;1.73;;;1.02;;
66143;SDS011;52947;50.842;6.084;2022-12-22T15:28:12;5.22;;;1.10;;
66143;SDS011;52947;50.842;6.084;2022-12-22T15:30:40;3.03;;;1.40;;
66143;SDS011;52947;50.842;6.084;2022-12-22T15:33:13;5.15;;;1.52;;
66143;SDS011;52947;50.842;6.084;2022-12-22T15:35:43;3.30;;;1.52;;
66143;SDS011;52947;50.842;6.084;2022-12-22T15:38:12;5.07;;;1.63;;
66143;SDS011;52947;50.842;6.084;2022-12-22T15:40:42;2.08;;;1.30;;
66143;SDS011;52947;50.842;6.084;2022-12-22T15:43:11;2.67;;;1.40;;
66143;SDS011;52947;50.842;6.084;2022-12-22T15:45:59;5.05;;;1.70;;
66143;SDS011;52947;50.842;6.084;2022-12-22T15:48:30;2.80;;;1.92;;
66143;SDS011;52947;50.842;6.084;2022-12-22T15:51:02;5.00;;;1.58;;
66143;SDS011;52947;50.842;6.084;2022-12-22T15:53:32;5.18;;;1.83;;
66143;SDS011;52947;50.842;6.084;2022-12-22T15:56:01;12.23;;;2.22;;
66143;SDS011;52947;50.842;6.084;2022-12-22T15:58:30;12.93;;;2.88;;
66143;SDS011;52947;50.842;6.084;2022-12-22T16:01:01;5.65;;;2.17;;
66143;SDS011;52947;50.842;6.084;2022-12-22T16:03:30;27.13;;;3.45;;
66143;SDS011;52947;50.842;6.084;2022-12-22T16:05:58;9.98;;;2.95;;
66143;SDS011;52947;50.842;6.084;2022-12-22T16:08:27;9.70;;;2.38;;
66143;SDS011;52947;50.842;6.084;2022-12-22T16:11:03;9.32;;;2.90;;
66143;SDS011;52947;50.842;6.084;2022-12-22T16:13:33;11.07;;;2.20;;
66143;SDS011;52947;50.842;6.084;2022-12-22T16:16:03;14.23;;;2.40;;
66143;SDS011;52947;50.842;6.084;2022-12-22T16:18:33;6.13;;;2.20;;
66143;SDS011;52947;50.842;6.084;2022-12-22T16:21:03;7.78;;;2.10;;
66143;SDS011;52947;50.842;6.084;2022-12-22T16:23:33;7.80;;;3.75;;
66143;SDS011;52947;50.842;6.084;2022-12-22T16:26:05;5.57;;;1.75;;